sensor_id;sensor_type;location;lat;lon;timestamp;P1;durP1;ratioP1;P2;durP2;ratioP2
22628;SDS011;11481;53.694;9.910;2022-09-09T00:03:43;18.80;;;8.02;;
22628;SDS011;11481;53.694;9.910;2022-09-09T00:06:23;30.15;;;9.45;;
22628;SDS011;11481;53.694;9.910;2022-09-09T00:11:39;18.90;;;8.82;;
22628;SDS011;11481;53.694;9.910;2022-09-09T00:14:22;17.13;;;9.05;;
22628;SDS011;11481;53.694;9.910;2022-09-09T00:16:52;18.13;;;8.15;;
22628;SDS011;11481;53.694;9.910;2022-09-09T00:24:42;18.38;;;8.45;;
22628;SDS011;11481;53.694;9.910;2022-09-09T00:27:23;16.05;;;7.25;;
22628;SDS011;11481;53.694;9.910;2022-09-09T00:30:14;15.95;;;7.72;;
22628;SDS011;11481;53.694;9.910;2022-09-09T00:32:44;16.65;;;7.32;;
22628;SDS011;11481;53.694;9.910;2022-09-09T00:37:50;19.75;;;7.32;;
22628;SDS011;11481;53.694;9.910;2022-09-09T00:42:54;19.08;;;7.93;;
22628;SDS011;11481;53.694;9.910;2022-09-09T00:46:41;15.63;;;7.35;;
22628;SDS011;11481;53.694;9.910;2022-09-09T00:54:44;18.83;;;8.00;;
22628;SDS011;11481;53.694;9.910;2022-09-09T00:59:56;17.02;;;8.15;;
22628;SDS011;11481;53.694;9.910;2022-09-09T01:02:27;20.25;;;8.50;;
22628;SDS011;11481;53.694;9.910;2022-09-09T01:04:59;19.75;;;8.05;;
22628;SDS011;11481;53.694;9.910;2022-09-09T01:07:33;20.70;;;8.50;;
22628;SDS011;11481;53.694;9.910;2022-09-09T01:10:00;22.50;;;9.50;;
22628;SDS011;11481;53.694;9.910;2022-09-09T01:12:41;18.13;;;6.80;;
22628;SDS011;11481;53.694;9.910;2022-09-09T01:15:11;19.30;;;7.88;;
22628;SDS011;11481;53.694;9.910;2022-09-09T01:18:02;19.77;;;9.20;;
22628;SDS011;11481;53.694;9.910;2022-09-09T01:23:16;28.48;;;9.27;;
22628;SDS011;11481;53.694;9.910;2022-09-09T01:26:10;21.25;;;8.27;;
22628;SDS011;11481;53.694;9.910;2022-09-09T01:28:40;22.02;;;8.82;;
22628;SDS011;11481;53.694;9.910;2022-09-09T01:31:12;24.10;;;9.27;;
22628;SDS011;11481;53.694;9.910;2022-09-09T01:33:44;24.02;;;10.73;;
22628;SDS011;11481;53.694;9.910;2022-09-09T01:38:37;25.08;;;10.70;;
22628;SDS011;11481;53.694;9.910;2022-09-09T01:41:04;20.52;;;9.02;;
22628;SDS011;11481;53.694;9.910;2022-09-09T01:43:30;23.77;;;11.32;;
22628;SDS011;11481;53.694;9.910;2022-09-09T01:45:58;22.25;;;9.13;;
22628;SDS011;11481;53.694;9.910;2022-09-09T01:48:27;24.55;;;9.75;;
22628;SDS011;11481;53.694;9.910;2022-09-09T01:50:54;21.90;;;9.05;;
22628;SDS011;11481;53.694;9.910;2022-09-09T01:53:21;22.35;;;10.32;;
22628;SDS011;11481;53.694;9.910;2022-09-09T01:56:02;22.98;;;9.80;;
22628;SDS011;11481;53.694;9.910;2022-09-09T01:58:44;22.75;;;8.82;;
22628;SDS011;11481;53.694;9.910;2022-09-09T02:04:03;22.42;;;8.63;;
22628;SDS011;11481;53.694;9.910;2022-09-09T02:06:38;22.73;;;8.88;;
22628;SDS011;11481;53.694;9.910;2022-09-09T02:09:07;23.83;;;9.07;;
22628;SDS011;11481;53.694;9.910;2022-09-09T02:11:38;16.25;;;7.82;;
22628;SDS011;11481;53.694;9.910;2022-09-09T02:14:08;25.50;;;9.95;;
22628;SDS011;11481;53.694;9.910;2022-09-09T02:16:49;21.95;;;9.00;;
22628;SDS011;11481;53.694;9.910;2022-09-09T02:19:31;23.08;;;9.88;;
22628;SDS011;11481;53.694;9.910;2022-09-09T02:22:00;19.27;;;7.60;;
22628;SDS011;11481;53.694;9.910;2022-09-09T02:24:29;20.10;;;8.85;;
22628;SDS011;11481;53.694;9.910;2022-09-09T02:26:59;23.00;;;9.38;;
22628;SDS011;11481;53.694;9.910;2022-09-09T02:29:31;22.90;;;9.75;;
22628;SDS011;11481;53.694;9.910;2022-09-09T02:32:03;22.38;;;9.15;;
22628;SDS011;11481;53.694;9.910;2022-09-09T02:34:35;26.48;;;9.43;;
22628;SDS011;11481;53.694;9.910;2022-09-09T02:37:06;18.80;;;7.85;;
22628;SDS011;11481;53.694;9.910;2022-09-09T02:39:35;19.05;;;8.43;;
22628;SDS011;11481;53.694;9.910;2022-09-09T02:42:03;23.08;;;9.52;;
22628;SDS011;11481;53.694;9.910;2022-09-09T02:44:30;21.33;;;8.82;;
22628;SDS011;11481;53.694;9.910;2022-09-09T02:47:05;20.98;;;7.03;;
22628;SDS011;11481;53.694;9.910;2022-09-09T02:52:32;23.52;;;9.23;;
22628;SDS011;11481;53.694;9.910;2022-09-09T02:55:05;21.92;;;8.80;;
22628;SDS011;11481;53.694;9.910;2022-09-09T02:57:38;20.30;;;7.85;;
22628;SDS011;11481;53.694;9.910;2022-09-09T03:00:07;22.88;;;8.90;;
22628;SDS011;11481;53.694;9.910;2022-09-09T03:02:34;26.80;;;8.55;;
22628;SDS011;11481;53.694;9.910;2022-09-09T03:05:01;19.48;;;8.02;;
22628;SDS011;11481;53.694;9.910;2022-09-09T03:07:27;19.88;;;7.70;;
22628;SDS011;11481;53.694;9.910;2022-09-09T03:09:54;21.00;;;8.93;;
22628;SDS011;11481;53.694;9.910;2022-09-09T03:12:20;17.35;;;7.75;;
22628;SDS011;11481;53.694;9.910;2022-09-09T03:14:48;21.90;;;7.90;;
22628;SDS011;11481;53.694;9.910;2022-09-09T03:17:14;22.30;;;8.57;;
22628;SDS011;11481;53.694;9.910;2022-09-09T03:19:41;17.55;;;7.20;;
22628;SDS011;11481;53.694;9.910;2022-09-09T03:22:09;17.92;;;6.97;;
22628;SDS011;11481;53.694;9.910;2022-09-09T03:24:36;21.02;;;7.78;;
22628;SDS011;11481;53.694;9.910;2022-09-09T03:27:03;17.48;;;8.10;;
22628;SDS011;11481;53.694;9.910;2022-09-09T03:29:29;21.13;;;9.13;;
22628;SDS011;11481;53.694;9.910;2022-09-09T03:31:56;18.67;;;7.47;;
22628;SDS011;11481;53.694;9.910;2022-09-09T03:34:23;18.67;;;8.10;;
22628;SDS011;11481;53.694;9.910;2022-09-09T03:36:49;20.33;;;7.75;;
22628;SDS011;11481;53.694;9.910;2022-09-09T03:39:16;20.52;;;7.80;;
22628;SDS011;11481;53.694;9.910;2022-09-09T03:41:43;16.05;;;8.27;;
22628;SDS011;11481;53.694;9.910;2022-09-09T03:44:12;22.42;;;7.50;;
22628;SDS011;11481;53.694;9.910;2022-09-09T03:46:38;21.42;;;8.55;;
22628;SDS011;11481;53.694;9.910;2022-09-09T03:49:05;23.88;;;8.05;;
22628;SDS011;11481;53.694;9.910;2022-09-09T03:51:32;22.50;;;8.18;;
22628;SDS011;11481;53.694;9.910;2022-09-09T03:54:02;17.98;;;7.68;;
22628;SDS011;11481;53.694;9.910;2022-09-09T03:56:31;17.80;;;9.15;;
22628;SDS011;11481;53.694;9.910;2022-09-09T03:58:57;18.92;;;6.47;;
22628;SDS011;11481;53.694;9.910;2022-09-09T04:01:24;19.50;;;7.97;;
22628;SDS011;11481;53.694;9.910;2022-09-09T04:03:51;14.82;;;8.00;;
22628;SDS011;11481;53.694;9.910;2022-09-09T04:06:18;18.67;;;7.72;;
22628;SDS011;11481;53.694;9.910;2022-09-09T04:08:47;14.00;;;6.93;;
22628;SDS011;11481;53.694;9.910;2022-09-09T04:11:15;16.38;;;7.93;;
22628;SDS011;11481;53.694;9.910;2022-09-09T04:13:42;18.00;;;7.32;;
22628;SDS011;11481;53.694;9.910;2022-09-09T04:16:11;15.73;;;7.93;;
22628;SDS011;11481;53.694;9.910;2022-09-09T04:18:41;14.25;;;7.25;;
22628;SDS011;11481;53.694;9.910;2022-09-09T04:21:09;15.88;;;6.70;;
22628;SDS011;11481;53.694;9.910;2022-09-09T04:23:38;16.45;;;6.43;;
22628;SDS011;11481;53.694;9.910;2022-09-09T04:26:05;16.95;;;7.03;;
22628;SDS011;11481;53.694;9.910;2022-09-09T04:28:33;21.60;;;7.50;;
22628;SDS011;11481;53.694;9.910;2022-09-09T04:31:08;15.77;;;7.57;;
22628;SDS011;11481;53.694;9.910;2022-09-09T04:33:40;16.60;;;6.40;;
22628;SDS011;11481;53.694;9.910;2022-09-09T04:36:07;16.45;;;6.30;;
22628;SDS011;11481;53.694;9.910;2022-09-09T04:38:34;13.93;;;6.47;;
22628;SDS011;11481;53.694;9.910;2022-09-09T04:41:01;13.55;;;6.88;;
22628;SDS011;11481;53.694;9.910;2022-09-09T04:43:28;16.60;;;7.43;;
22628;SDS011;11481;53.694;9.910;2022-09-09T04:45:56;13.93;;;5.78;;
22628;SDS011;11481;53.694;9.910;2022-09-09T04:48:23;17.60;;;6.68;;
22628;SDS011;11481;53.694;9.910;2022-09-09T04:50:55;13.98;;;5.97;;
22628;SDS011;11481;53.694;9.910;2022-09-09T04:53:30;12.25;;;6.13;;
22628;SDS011;11481;53.694;9.910;2022-09-09T04:56:08;15.60;;;6.95;;
22628;SDS011;11481;53.694;9.910;2022-09-09T04:58:39;15.65;;;7.05;;
22628;SDS011;11481;53.694;9.910;2022-09-09T05:03:39;15.02;;;6.95;;
22628;SDS011;11481;53.694;9.910;2022-09-09T05:06:10;14.35;;;6.55;;
22628;SDS011;11481;53.694;9.910;2022-09-09T05:08:38;18.42;;;7.90;;
22628;SDS011;11481;53.694;9.910;2022-09-09T05:11:19;16.33;;;7.57;;
22628;SDS011;11481;53.694;9.910;2022-09-09T05:13:50;14.88;;;6.05;;
22628;SDS011;11481;53.694;9.910;2022-09-09T05:16:17;22.52;;;7.53;;
22628;SDS011;11481;53.694;9.910;2022-09-09T05:18:45;18.67;;;7.03;;
22628;SDS011;11481;53.694;9.910;2022-09-09T05:21:18;18.85;;;7.60;;
22628;SDS011;11481;53.694;9.910;2022-09-09T05:23:47;14.57;;;6.95;;
22628;SDS011;11481;53.694;9.910;2022-09-09T05:26:15;16.17;;;6.38;;
22628;SDS011;11481;53.694;9.910;2022-09-09T05:28:43;14.77;;;6.53;;
22628;SDS011;11481;53.694;9.910;2022-09-09T05:31:11;18.08;;;5.93;;
22628;SDS011;11481;53.694;9.910;2022-09-09T05:33:40;13.35;;;5.80;;
22628;SDS011;11481;53.694;9.910;2022-09-09T05:36:10;14.40;;;6.15;;
22628;SDS011;11481;53.694;9.910;2022-09-09T05:38:39;11.35;;;4.82;;
22628;SDS011;11481;53.694;9.910;2022-09-09T05:41:06;13.90;;;6.00;;
22628;SDS011;11481;53.694;9.910;2022-09-09T05:43:36;11.95;;;5.45;;
22628;SDS011;11481;53.694;9.910;2022-09-09T05:46:07;12.15;;;5.93;;
22628;SDS011;11481;53.694;9.910;2022-09-09T05:48:39;12.32;;;5.55;;
22628;SDS011;11481;53.694;9.910;2022-09-09T05:51:07;12.52;;;5.25;;
22628;SDS011;11481;53.694;9.910;2022-09-09T05:53:36;12.48;;;5.85;;
22628;SDS011;11481;53.694;9.910;2022-09-09T05:58:31;12.70;;;4.85;;
22628;SDS011;11481;53.694;9.910;2022-09-09T06:01:09;12.32;;;5.68;;
22628;SDS011;11481;53.694;9.910;2022-09-09T06:03:40;12.07;;;5.32;;
22628;SDS011;11481;53.694;9.910;2022-09-09T06:06:09;10.05;;;4.15;;
22628;SDS011;11481;53.694;9.910;2022-09-09T06:08:38;12.00;;;4.65;;
22628;SDS011;11481;53.694;9.910;2022-09-09T06:11:08;11.48;;;5.15;;
22628;SDS011;11481;53.694;9.910;2022-09-09T06:13:36;9.32;;;5.13;;
22628;SDS011;11481;53.694;9.910;2022-09-09T06:16:05;9.52;;;4.57;;
22628;SDS011;11481;53.694;9.910;2022-09-09T06:18:34;11.55;;;5.03;;
22628;SDS011;11481;53.694;9.910;2022-09-09T06:21:01;10.35;;;4.68;;
22628;SDS011;11481;53.694;9.910;2022-09-09T06:23:33;10.55;;;4.45;;
22628;SDS011;11481;53.694;9.910;2022-09-09T06:26:06;9.27;;;4.60;;
22628;SDS011;11481;53.694;9.910;2022-09-09T06:28:36;11.25;;;5.07;;
22628;SDS011;11481;53.694;9.910;2022-09-09T06:31:05;8.35;;;4.28;;
22628;SDS011;11481;53.694;9.910;2022-09-09T06:33:34;9.18;;;4.22;;
22628;SDS011;11481;53.694;9.910;2022-09-09T06:36:03;14.23;;;4.57;;
22628;SDS011;11481;53.694;9.910;2022-09-09T06:38:30;6.88;;;3.70;;
22628;SDS011;11481;53.694;9.910;2022-09-09T06:40:57;9.93;;;4.80;;
22628;SDS011;11481;53.694;9.910;2022-09-09T06:43:25;10.15;;;4.45;;
22628;SDS011;11481;53.694;9.910;2022-09-09T06:46:00;8.05;;;3.70;;
22628;SDS011;11481;53.694;9.910;2022-09-09T06:48:41;7.32;;;4.30;;
22628;SDS011;11481;53.694;9.910;2022-09-09T06:51:10;6.90;;;3.58;;
22628;SDS011;11481;53.694;9.910;2022-09-09T06:53:40;6.97;;;3.35;;
22628;SDS011;11481;53.694;9.910;2022-09-09T06:58:50;9.25;;;4.18;;
22628;SDS011;11481;53.694;9.910;2022-09-09T07:01:19;10.75;;;4.35;;
22628;SDS011;11481;53.694;9.910;2022-09-09T07:04:14;8.07;;;3.60;;
22628;SDS011;11481;53.694;9.910;2022-09-09T07:06:41;7.60;;;3.60;;
22628;SDS011;11481;53.694;9.910;2022-09-09T07:09:11;7.47;;;3.78;;
22628;SDS011;11481;53.694;9.910;2022-09-09T07:11:40;7.40;;;3.78;;
22628;SDS011;11481;53.694;9.910;2022-09-09T07:14:11;6.95;;;3.80;;
22628;SDS011;11481;53.694;9.910;2022-09-09T07:16:41;6.78;;;3.25;;
22628;SDS011;11481;53.694;9.910;2022-09-09T07:19:08;5.47;;;2.72;;
22628;SDS011;11481;53.694;9.910;2022-09-09T07:21:36;5.80;;;2.55;;
22628;SDS011;11481;53.694;9.910;2022-09-09T07:24:03;4.68;;;2.83;;
22628;SDS011;11481;53.694;9.910;2022-09-09T07:26:33;6.18;;;3.28;;
22628;SDS011;11481;53.694;9.910;2022-09-09T07:29:00;5.80;;;2.97;;
22628;SDS011;11481;53.694;9.910;2022-09-09T07:31:27;6.53;;;3.47;;
22628;SDS011;11481;53.694;9.910;2022-09-09T07:33:59;6.68;;;2.67;;
22628;SDS011;11481;53.694;9.910;2022-09-09T07:36:27;4.68;;;2.58;;
22628;SDS011;11481;53.694;9.910;2022-09-09T07:39:03;6.25;;;2.88;;
22628;SDS011;11481;53.694;9.910;2022-09-09T07:41:36;8.23;;;2.78;;
22628;SDS011;11481;53.694;9.910;2022-09-09T07:44:05;3.72;;;2.15;;
22628;SDS011;11481;53.694;9.910;2022-09-09T07:46:34;6.38;;;2.58;;
22628;SDS011;11481;53.694;9.910;2022-09-09T07:49:02;4.50;;;2.35;;
22628;SDS011;11481;53.694;9.910;2022-09-09T07:51:31;7.55;;;3.15;;
22628;SDS011;11481;53.694;9.910;2022-09-09T07:54:00;4.57;;;1.70;;
22628;SDS011;11481;53.694;9.910;2022-09-09T07:56:29;4.22;;;2.25;;
22628;SDS011;11481;53.694;9.910;2022-09-09T07:58:59;3.97;;;2.33;;
22628;SDS011;11481;53.694;9.910;2022-09-09T08:01:30;7.70;;;2.25;;
22628;SDS011;11481;53.694;9.910;2022-09-09T08:04:00;4.93;;;1.75;;
22628;SDS011;11481;53.694;9.910;2022-09-09T08:06:29;7.85;;;1.90;;
22628;SDS011;11481;53.694;9.910;2022-09-09T08:09:05;2.95;;;1.58;;
22628;SDS011;11481;53.694;9.910;2022-09-09T08:11:33;5.38;;;2.42;;
22628;SDS011;11481;53.694;9.910;2022-09-09T08:14:04;3.42;;;1.92;;
22628;SDS011;11481;53.694;9.910;2022-09-09T08:16:34;3.78;;;2.17;;
22628;SDS011;11481;53.694;9.910;2022-09-09T08:19:02;5.07;;;2.05;;
22628;SDS011;11481;53.694;9.910;2022-09-09T08:21:30;4.97;;;2.30;;
22628;SDS011;11481;53.694;9.910;2022-09-09T08:23:58;4.25;;;1.90;;
22628;SDS011;11481;53.694;9.910;2022-09-09T08:26:30;4.13;;;1.98;;
22628;SDS011;11481;53.694;9.910;2022-09-09T08:29:02;3.70;;;2.08;;
22628;SDS011;11481;53.694;9.910;2022-09-09T08:31:31;5.65;;;2.30;;
22628;SDS011;11481;53.694;9.910;2022-09-09T08:33:59;4.90;;;2.20;;
22628;SDS011;11481;53.694;9.910;2022-09-09T08:36:28;4.30;;;2.08;;
22628;SDS011;11481;53.694;9.910;2022-09-09T08:38:57;4.70;;;2.28;;
22628;SDS011;11481;53.694;9.910;2022-09-09T08:52:31;4.47;;;2.47;;
22628;SDS011;11481;53.694;9.910;2022-09-09T08:57:53;8.15;;;2.47;;
22628;SDS011;11481;53.694;9.910;2022-09-09T09:00:22;7.40;;;2.88;;
22628;SDS011;11481;53.694;9.910;2022-09-09T09:11:09;4.85;;;2.53;;
22628;SDS011;11481;53.694;9.910;2022-09-09T09:13:41;4.15;;;2.33;;
22628;SDS011;11481;53.694;9.910;2022-09-09T09:18:48;4.80;;;1.77;;
22628;SDS011;11481;53.694;9.910;2022-09-09T09:21:24;3.90;;;1.75;;
22628;SDS011;11481;53.694;9.910;2022-09-09T09:24:02;3.40;;;1.90;;
22628;SDS011;11481;53.694;9.910;2022-09-09T09:26:37;7.53;;;1.80;;
22628;SDS011;11481;53.694;9.910;2022-09-09T09:29:12;5.78;;;1.90;;
22628;SDS011;11481;53.694;9.910;2022-09-09T09:31:45;3.60;;;1.60;;
22628;SDS011;11481;53.694;9.910;2022-09-09T09:34:24;3.97;;;1.65;;
22628;SDS011;11481;53.694;9.910;2022-09-09T09:36:58;5.50;;;1.50;;
22628;SDS011;11481;53.694;9.910;2022-09-09T09:39:31;4.35;;;1.55;;
22628;SDS011;11481;53.694;9.910;2022-09-09T09:42:24;5.07;;;1.70;;
22628;SDS011;11481;53.694;9.910;2022-09-09T09:44:52;2.88;;;1.73;;
22628;SDS011;11481;53.694;9.910;2022-09-09T09:47:20;3.80;;;1.70;;
22628;SDS011;11481;53.694;9.910;2022-09-09T09:49:56;3.80;;;1.38;;
22628;SDS011;11481;53.694;9.910;2022-09-09T09:52:26;5.18;;;1.70;;
22628;SDS011;11481;53.694;9.910;2022-09-09T09:54:54;2.65;;;1.10;;
22628;SDS011;11481;53.694;9.910;2022-09-09T09:57:26;3.28;;;1.63;;
22628;SDS011;11481;53.694;9.910;2022-09-09T10:02:40;6.95;;;1.30;;
22628;SDS011;11481;53.694;9.910;2022-09-09T10:05:30;6.00;;;1.50;;
22628;SDS011;11481;53.694;9.910;2022-09-09T10:10:48;3.20;;;0.88;;
22628;SDS011;11481;53.694;9.910;2022-09-09T10:14:21;3.63;;;1.20;;
22628;SDS011;11481;53.694;9.910;2022-09-09T10:19:21;1.75;;;0.80;;
22628;SDS011;11481;53.694;9.910;2022-09-09T10:27:20;2.92;;;0.60;;
22628;SDS011;11481;53.694;9.910;2022-09-09T10:30:06;2.10;;;0.63;;
22628;SDS011;11481;53.694;9.910;2022-09-09T10:38:14;0.57;;;0.43;;
22628;SDS011;11481;53.694;9.910;2022-09-09T10:46:10;1.33;;;0.52;;
22628;SDS011;11481;53.694;9.910;2022-09-09T10:54:24;1.65;;;0.77;;
22628;SDS011;11481;53.694;9.910;2022-09-09T10:57:14;0.93;;;0.50;;
22628;SDS011;11481;53.694;9.910;2022-09-09T11:00:25;0.77;;;0.63;;
22628;SDS011;11481;53.694;9.910;2022-09-09T11:03:02;2.38;;;0.50;;
22628;SDS011;11481;53.694;9.910;2022-09-09T11:08:03;1.38;;;0.63;;
22628;SDS011;11481;53.694;9.910;2022-09-09T11:10:38;1.67;;;0.80;;
22628;SDS011;11481;53.694;9.910;2022-09-09T11:13:17;1.58;;;0.90;;
22628;SDS011;11481;53.694;9.910;2022-09-09T11:15:53;1.08;;;0.68;;
22628;SDS011;11481;53.694;9.910;2022-09-09T11:18:43;1.33;;;0.70;;
22628;SDS011;11481;53.694;9.910;2022-09-09T11:21:15;4.25;;;1.10;;
22628;SDS011;11481;53.694;9.910;2022-09-09T11:23:49;0.73;;;0.50;;
22628;SDS011;11481;53.694;9.910;2022-09-09T11:26:30;2.83;;;0.85;;
22628;SDS011;11481;53.694;9.910;2022-09-09T11:34:26;3.40;;;1.13;;
22628;SDS011;11481;53.694;9.910;2022-09-09T11:37:12;1.02;;;0.80;;
22628;SDS011;11481;53.694;9.910;2022-09-09T11:42:32;2.58;;;1.40;;
22628;SDS011;11481;53.694;9.910;2022-09-09T11:47:58;1.77;;;1.10;;
22628;SDS011;11481;53.694;9.910;2022-09-09T11:53:03;2.75;;;1.55;;
22628;SDS011;11481;53.694;9.910;2022-09-09T11:55:32;4.35;;;1.25;;
22628;SDS011;11481;53.694;9.910;2022-09-09T11:58:01;2.30;;;1.10;;
22628;SDS011;11481;53.694;9.910;2022-09-09T12:02:59;5.40;;;1.25;;
22628;SDS011;11481;53.694;9.910;2022-09-09T12:05:35;3.17;;;0.80;;
22628;SDS011;11481;53.694;9.910;2022-09-09T12:08:08;2.90;;;1.10;;
22628;SDS011;11481;53.694;9.910;2022-09-09T12:10:52;2.65;;;1.05;;
22628;SDS011;11481;53.694;9.910;2022-09-09T12:13:21;1.60;;;0.95;;
22628;SDS011;11481;53.694;9.910;2022-09-09T12:15:53;2.00;;;1.08;;
22628;SDS011;11481;53.694;9.910;2022-09-09T12:23:59;2.65;;;1.50;;
22628;SDS011;11481;53.694;9.910;2022-09-09T12:31:47;2.42;;;1.05;;
22628;SDS011;11481;53.694;9.910;2022-09-09T12:40:05;2.35;;;1.02;;
22628;SDS011;11481;53.694;9.910;2022-09-09T12:42:53;4.20;;;1.00;;
22628;SDS011;11481;53.694;9.910;2022-09-09T12:45:25;1.42;;;1.00;;
22628;SDS011;11481;53.694;9.910;2022-09-09T12:48:09;1.25;;;1.15;;
22628;SDS011;11481;53.694;9.910;2022-09-09T12:50:42;3.83;;;1.35;;
22628;SDS011;11481;53.694;9.910;2022-09-09T12:53:28;2.80;;;1.55;;
22628;SDS011;11481;53.694;9.910;2022-09-09T12:56:01;3.88;;;1.38;;
22628;SDS011;11481;53.694;9.910;2022-09-09T12:58:35;4.78;;;1.20;;
22628;SDS011;11481;53.694;9.910;2022-09-09T13:01:04;6.78;;;1.42;;
22628;SDS011;11481;53.694;9.910;2022-09-09T13:03:42;1.92;;;1.30;;
22628;SDS011;11481;53.694;9.910;2022-09-09T13:06:16;1.73;;;1.20;;
22628;SDS011;11481;53.694;9.910;2022-09-09T13:08:54;4.30;;;1.00;;
22628;SDS011;11481;53.694;9.910;2022-09-09T13:11:23;1.70;;;1.10;;
22628;SDS011;11481;53.694;9.910;2022-09-09T13:13:55;1.35;;;1.05;;
22628;SDS011;11481;53.694;9.910;2022-09-09T13:16:25;1.98;;;0.90;;
22628;SDS011;11481;53.694;9.910;2022-09-09T13:19:02;2.22;;;1.13;;
22628;SDS011;11481;53.694;9.910;2022-09-09T13:21:35;2.85;;;0.90;;
22628;SDS011;11481;53.694;9.910;2022-09-09T13:24:30;1.73;;;1.08;;
22628;SDS011;11481;53.694;9.910;2022-09-09T13:26:59;3.85;;;1.85;;
22628;SDS011;11481;53.694;9.910;2022-09-09T13:29:31;5.97;;;1.25;;
22628;SDS011;11481;53.694;9.910;2022-09-09T13:32:05;3.33;;;1.10;;
22628;SDS011;11481;53.694;9.910;2022-09-09T13:34:38;2.00;;;1.10;;
22628;SDS011;11481;53.694;9.910;2022-09-09T13:37:06;4.10;;;1.75;;
22628;SDS011;11481;53.694;9.910;2022-09-09T13:39:50;3.35;;;1.58;;
22628;SDS011;11481;53.694;9.910;2022-09-09T13:42:24;7.22;;;2.40;;
22628;SDS011;11481;53.694;9.910;2022-09-09T13:44:53;6.78;;;2.38;;
22628;SDS011;11481;53.694;9.910;2022-09-09T13:47:22;2.63;;;0.88;;
22628;SDS011;11481;53.694;9.910;2022-09-09T13:50:44;5.22;;;1.80;;
22628;SDS011;11481;53.694;9.910;2022-09-09T13:52:53;3.50;;;1.13;;
22628;SDS011;11481;53.694;9.910;2022-09-09T13:55:22;2.65;;;1.50;;
22628;SDS011;11481;53.694;9.910;2022-09-09T13:57:51;3.75;;;1.63;;
22628;SDS011;11481;53.694;9.910;2022-09-09T14:00:26;4.20;;;1.42;;
22628;SDS011;11481;53.694;9.910;2022-09-09T14:02:57;2.42;;;1.40;;
22628;SDS011;11481;53.694;9.910;2022-09-09T14:05:26;4.10;;;1.30;;
22628;SDS011;11481;53.694;9.910;2022-09-09T14:07:53;4.57;;;1.48;;
22628;SDS011;11481;53.694;9.910;2022-09-09T14:10:20;1.88;;;1.00;;
22628;SDS011;11481;53.694;9.910;2022-09-09T14:12:48;2.38;;;1.20;;
22628;SDS011;11481;53.694;9.910;2022-09-09T14:15:14;2.15;;;1.10;;
22628;SDS011;11481;53.694;9.910;2022-09-09T14:17:42;4.03;;;1.40;;
22628;SDS011;11481;53.694;9.910;2022-09-09T14:20:09;1.77;;;1.13;;
22628;SDS011;11481;53.694;9.910;2022-09-09T14:22:37;3.33;;;1.48;;
22628;SDS011;11481;53.694;9.910;2022-09-09T14:25:05;2.45;;;1.88;;
22628;SDS011;11481;53.694;9.910;2022-09-09T14:27:32;4.85;;;1.80;;
22628;SDS011;11481;53.694;9.910;2022-09-09T14:29:59;2.60;;;1.45;;
22628;SDS011;11481;53.694;9.910;2022-09-09T14:32:26;2.65;;;1.48;;
22628;SDS011;11481;53.694;9.910;2022-09-09T14:34:53;4.90;;;1.88;;
22628;SDS011;11481;53.694;9.910;2022-09-09T14:37:20;2.78;;;1.77;;
22628;SDS011;11481;53.694;9.910;2022-09-09T14:39:47;7.30;;;2.55;;
22628;SDS011;11481;53.694;9.910;2022-09-09T14:42:16;2.85;;;2.00;;
22628;SDS011;11481;53.694;9.910;2022-09-09T14:44:43;4.00;;;2.03;;
22628;SDS011;11481;53.694;9.910;2022-09-09T14:47:10;5.30;;;2.25;;
22628;SDS011;11481;53.694;9.910;2022-09-09T14:49:37;3.25;;;2.22;;
22628;SDS011;11481;53.694;9.910;2022-09-09T14:52:07;3.92;;;2.00;;
22628;SDS011;11481;53.694;9.910;2022-09-09T14:54:35;2.53;;;1.63;;
22628;SDS011;11481;53.694;9.910;2022-09-09T14:57:01;5.05;;;2.28;;
22628;SDS011;11481;53.694;9.910;2022-09-09T14:59:28;6.03;;;2.20;;
22628;SDS011;11481;53.694;9.910;2022-09-09T15:01:55;4.03;;;1.90;;
22628;SDS011;11481;53.694;9.910;2022-09-09T15:04:22;2.33;;;1.58;;
22628;SDS011;11481;53.694;9.910;2022-09-09T15:06:53;3.00;;;2.08;;
22628;SDS011;11481;53.694;9.910;2022-09-09T15:09:20;3.95;;;1.98;;
22628;SDS011;11481;53.694;9.910;2022-09-09T15:11:47;4.47;;;2.30;;
22628;SDS011;11481;53.694;9.910;2022-09-09T15:14:13;3.50;;;2.03;;
22628;SDS011;11481;53.694;9.910;2022-09-09T15:16:40;5.05;;;2.42;;
22628;SDS011;11481;53.694;9.910;2022-09-09T15:19:07;2.60;;;1.80;;
22628;SDS011;11481;53.694;9.910;2022-09-09T15:21:35;4.30;;;1.70;;
22628;SDS011;11481;53.694;9.910;2022-09-09T15:24:03;2.63;;;1.52;;
22628;SDS011;11481;53.694;9.910;2022-09-09T15:26:30;2.55;;;1.40;;
22628;SDS011;11481;53.694;9.910;2022-09-09T15:28:57;2.72;;;1.45;;
22628;SDS011;11481;53.694;9.910;2022-09-09T15:31:26;2.35;;;1.40;;
22628;SDS011;11481;53.694;9.910;2022-09-09T15:33:56;3.08;;;1.90;;
22628;SDS011;11481;53.694;9.910;2022-09-09T15:39:16;2.50;;;1.38;;
22628;SDS011;11481;53.694;9.910;2022-09-09T15:41:47;2.70;;;1.50;;
22628;SDS011;11481;53.694;9.910;2022-09-09T15:44:14;5.72;;;1.40;;
22628;SDS011;11481;53.694;9.910;2022-09-09T15:46:51;2.63;;;1.50;;
22628;SDS011;11481;53.694;9.910;2022-09-09T15:49:22;2.40;;;1.45;;
22628;SDS011;11481;53.694;9.910;2022-09-09T15:51:55;3.47;;;1.75;;
22628;SDS011;11481;53.694;9.910;2022-09-09T15:54:24;3.60;;;1.48;;
22628;SDS011;11481;53.694;9.910;2022-09-09T15:56:53;2.92;;;1.73;;
22628;SDS011;11481;53.694;9.910;2022-09-09T15:59:22;7.55;;;2.30;;
22628;SDS011;11481;53.694;9.910;2022-09-09T16:01:49;3.60;;;1.90;;
22628;SDS011;11481;53.694;9.910;2022-09-09T16:04:19;2.90;;;2.13;;
22628;SDS011;11481;53.694;9.910;2022-09-09T16:06:52;4.22;;;1.80;;
22628;SDS011;11481;53.694;9.910;2022-09-09T16:09:20;2.63;;;1.77;;
22628;SDS011;11481;53.694;9.910;2022-09-09T16:11:47;5.00;;;1.50;;
22628;SDS011;11481;53.694;9.910;2022-09-09T16:14:14;3.58;;;1.52;;
22628;SDS011;11481;53.694;9.910;2022-09-09T16:16:42;5.47;;;1.80;;
22628;SDS011;11481;53.694;9.910;2022-09-09T16:19:10;3.92;;;1.40;;
22628;SDS011;11481;53.694;9.910;2022-09-09T16:21:39;2.60;;;1.40;;
22628;SDS011;11481;53.694;9.910;2022-09-09T16:24:11;1.95;;;1.27;;
22628;SDS011;11481;53.694;9.910;2022-09-09T16:26:40;2.80;;;1.55;;
22628;SDS011;11481;53.694;9.910;2022-09-09T16:29:11;2.63;;;1.50;;
22628;SDS011;11481;53.694;9.910;2022-09-09T16:31:38;2.22;;;1.20;;
22628;SDS011;11481;53.694;9.910;2022-09-09T16:34:06;2.92;;;1.35;;
22628;SDS011;11481;53.694;9.910;2022-09-09T16:36:34;2.28;;;1.23;;
22628;SDS011;11481;53.694;9.910;2022-09-09T16:39:03;2.33;;;1.17;;
22628;SDS011;11481;53.694;9.910;2022-09-09T16:41:32;1.95;;;1.35;;
22628;SDS011;11481;53.694;9.910;2022-09-09T16:44:00;5.10;;;1.25;;
22628;SDS011;11481;53.694;9.910;2022-09-09T16:46:33;2.17;;;1.27;;
22628;SDS011;11481;53.694;9.910;2022-09-09T16:49:03;5.55;;;1.13;;
22628;SDS011;11481;53.694;9.910;2022-09-09T16:51:32;3.80;;;1.40;;
22628;SDS011;11481;53.694;9.910;2022-09-09T16:54:02;4.07;;;1.73;;
22628;SDS011;11481;53.694;9.910;2022-09-09T16:56:32;2.13;;;1.33;;
22628;SDS011;11481;53.694;9.910;2022-09-09T16:59:06;2.05;;;1.25;;
22628;SDS011;11481;53.694;9.910;2022-09-09T17:01:52;3.50;;;1.52;;
22628;SDS011;11481;53.694;9.910;2022-09-09T17:04:21;5.82;;;1.75;;
22628;SDS011;11481;53.694;9.910;2022-09-09T17:06:51;3.95;;;1.50;;
22628;SDS011;11481;53.694;9.910;2022-09-09T17:09:19;2.13;;;1.25;;
22628;SDS011;11481;53.694;9.910;2022-09-09T17:11:48;2.75;;;1.25;;
22628;SDS011;11481;53.694;9.910;2022-09-09T17:14:19;2.45;;;1.10;;
22628;SDS011;11481;53.694;9.910;2022-09-09T17:16:47;3.40;;;1.55;;
22628;SDS011;11481;53.694;9.910;2022-09-09T17:19:14;2.97;;;1.42;;
22628;SDS011;11481;53.694;9.910;2022-09-09T17:21:41;5.03;;;2.70;;
22628;SDS011;11481;53.694;9.910;2022-09-09T17:24:28;3.72;;;2.30;;